createdAt,value
2022-09-05T00:00:55.351Z,0.80
2022-09-05T00:03:56.899Z,1.40
2022-09-05T00:07:04.679Z,0.80
2022-09-05T00:10:09.400Z,0.80
2022-09-05T00:13:07.704Z,0.80
2022-09-05T00:16:25.588Z,0.80
2022-09-05T00:24:20.545Z,1.10
2022-09-05T00:24:36.938Z,1.10
2022-09-05T00:26:13.678Z,0.90
2022-09-05T00:29:37.680Z,0.80
2022-09-05T00:32:37.117Z,1.30
2022-09-05T00:35:47.909Z,1.10
2022-09-05T00:38:42.232Z,1.00
2022-09-05T00:41:34.356Z,1.10
2022-09-05T00:44:29.135Z,1.00
2022-09-05T00:47:34.315Z,0.90
2022-09-05T00:50:32.988Z,1.20
2022-09-05T00:53:30.338Z,1.00
2022-09-05T00:56:38.530Z,0.90
2022-09-05T01:00:01.617Z,0.90
2022-09-05T01:03:21.291Z,0.90
2022-09-05T01:06:34.673Z,1.00
2022-09-05T01:09:36.011Z,1.00
2022-09-05T01:12:52.820Z,1.20
2022-09-05T01:15:55.781Z,0.90
2022-09-05T01:18:52.194Z,1.10
2022-09-05T01:21:55.857Z,1.10
2022-09-05T01:25:18.844Z,1.10
2022-09-05T01:29:13.581Z,1.30
2022-09-05T01:31:38.006Z,1.00
2022-09-05T01:34:38.526Z,1.20
2022-09-05T01:37:37.888Z,1.00
2022-09-05T01:40:38.774Z,1.10
2022-09-05T01:43:52.574Z,1.10
2022-09-05T01:46:54.468Z,1.40
2022-09-05T01:50:01.160Z,0.90
2022-09-05T01:53:17.421Z,1.20
2022-09-05T01:56:41.747Z,1.50
2022-09-05T01:59:45.856Z,1.10
2022-09-05T02:02:50.802Z,1.00
2022-09-05T02:06:02.988Z,0.80
2022-09-05T02:09:06.493Z,1.20
2022-09-05T02:12:00.536Z,1.00
2022-09-05T02:15:02.280Z,1.20
2022-09-05T02:17:57.250Z,1.20
2022-09-05T02:20:55.005Z,1.10
2022-09-05T02:23:50.049Z,1.10
2022-09-05T02:26:55.899Z,1.00
2022-09-05T02:29:55.891Z,1.00
2022-09-05T02:33:05.278Z,1.20
2022-09-05T02:36:09.813Z,1.00
2022-09-05T02:45:08.602Z,1.10
2022-09-05T02:45:20.600Z,1.00
2022-09-05T02:45:48.187Z,0.90
2022-09-05T02:48:52.592Z,1.10
2022-09-05T02:57:25.517Z,1.40
2022-09-05T02:57:35.419Z,0.90
2022-09-05T02:59:08.184Z,0.90
2022-09-05T03:02:25.060Z,1.10
2022-09-05T03:05:23.788Z,0.90
2022-09-05T03:08:35.959Z,1.10
2022-09-05T03:12:29.231Z,1.00
2022-09-05T03:16:04.525Z,1.10
2022-09-05T03:19:35.361Z,1.10
2022-09-05T03:23:07.533Z,1.40
2022-09-05T03:26:40.605Z,1.30
2022-09-05T03:29:58.611Z,1.40
2022-09-05T03:36:29.076Z,1.20
2022-09-05T03:40:16.228Z,0.80
2022-09-05T03:43:37.589Z,1.20
2022-09-05T03:46:44.095Z,1.10
2022-09-05T03:51:45.842Z,0.90
2022-09-05T03:57:23.407Z,1.40
2022-09-05T03:57:36.974Z,1.20
2022-09-05T04:00:34.367Z,1.20
2022-09-05T04:08:17.882Z,0.90
2022-09-05T04:08:29.813Z,1.20
2022-09-05T04:09:59.297Z,0.90
2022-09-05T04:12:55.760Z,1.20
2022-09-05T04:15:50.126Z,1.30
2022-09-05T04:18:52.184Z,1.20
2022-09-05T04:21:50.417Z,1.30
2022-09-05T04:24:47.926Z,1.50
2022-09-05T04:27:56.198Z,1.80
2022-09-05T04:30:50.979Z,1.20
2022-09-05T04:33:54.846Z,1.20
2022-09-05T04:36:48.518Z,1.10
2022-09-05T04:39:40.172Z,1.30
2022-09-05T04:42:31.938Z,1.30
2022-09-05T04:45:24.269Z,1.20
2022-09-05T04:48:21.638Z,1.30
2022-09-05T04:51:45.026Z,1.80
2022-09-05T04:54:54.635Z,1.20
2022-09-05T04:57:52.839Z,1.30
2022-09-05T05:06:05.818Z,1.40
2022-09-05T05:06:15.114Z,1.50
2022-09-05T05:07:33.106Z,1.20
2022-09-05T05:15:10.113Z,1.20
2022-09-05T05:17:57.193Z,1.10
2022-09-05T05:18:06.878Z,1.70
2022-09-05T05:20:41.281Z,1.40
2022-09-05T05:23:40.521Z,1.10
2022-09-05T05:26:38.328Z,1.70
2022-09-05T05:29:40.427Z,1.40
2022-09-05T05:32:45.165Z,1.20
2022-09-05T05:35:48.040Z,1.20
2022-09-05T05:38:47.960Z,1.50
2022-09-05T05:41:45.995Z,1.00
2022-09-05T05:44:39.729Z,2.30
2022-09-05T05:47:36.996Z,1.60
2022-09-05T05:50:39.968Z,1.40
2022-09-05T05:53:44.905Z,1.30
2022-09-05T05:56:48.893Z,1.20
2022-09-05T06:00:15.215Z,1.90
2022-09-05T06:03:40.912Z,1.90
2022-09-05T06:06:57.487Z,1.20
2022-09-05T06:14:49.881Z,1.40
2022-09-05T06:17:28.249Z,1.50
2022-09-05T06:22:06.807Z,1.20
2022-09-05T06:24:09.369Z,1.20
2022-09-05T06:28:04.690Z,1.30
2022-09-05T06:31:29.922Z,1.00
2022-09-05T06:34:38.472Z,1.30
2022-09-05T06:37:36.577Z,1.20
2022-09-05T06:40:34.939Z,1.30
2022-09-05T06:43:42.354Z,1.30
2022-09-05T06:46:55.066Z,1.20
2022-09-05T06:50:24.649Z,1.20
2022-09-05T06:53:48.404Z,1.40
2022-09-05T06:56:52.699Z,1.60
2022-09-05T07:00:06.025Z,1.40
2022-09-05T07:03:27.423Z,1.50
2022-09-05T07:06:48.056Z,1.70
2022-09-05T07:09:52.788Z,1.80
2022-09-05T07:12:50.440Z,1.50
2022-09-05T07:15:52.136Z,1.50
2022-09-05T07:18:55.012Z,1.70
2022-09-05T07:22:06.408Z,1.60
2022-09-05T07:25:21.683Z,1.80
2022-09-05T07:28:28.601Z,2.00
2022-09-05T07:31:27.709Z,1.80
2022-09-05T07:34:33.044Z,1.40
2022-09-05T07:37:27.069Z,1.20
2022-09-05T07:40:25.078Z,1.40
2022-09-05T07:43:22.844Z,1.40
2022-09-05T07:46:16.548Z,1.30
2022-09-05T07:49:10.177Z,1.10
2022-09-05T07:56:53.220Z,1.30
2022-09-05T07:57:00.913Z,1.10
2022-09-05T07:58:44.713Z,1.30
2022-09-05T08:01:36.881Z,1.50
2022-09-05T08:04:32.570Z,1.30
2022-09-05T08:07:48.079Z,1.30
2022-09-05T08:11:23.855Z,1.50
2022-09-05T08:14:38.403Z,1.60
2022-09-05T08:17:21.167Z,1.10
2022-09-05T08:20:34.050Z,1.30
2022-09-05T08:23:44.606Z,1.50
2022-09-05T08:26:46.417Z,1.70
2022-09-05T08:29:42.202Z,1.00
2022-09-05T08:32:44.706Z,1.70
2022-09-05T08:35:41.413Z,1.20
2022-09-05T08:41:49.959Z,1.30
2022-09-05T08:46:40.994Z,1.10
2022-09-05T08:48:18.868Z,1.10
2022-09-05T08:51:26.530Z,0.90
2022-09-05T08:54:27.333Z,0.90
2022-09-05T08:57:26.797Z,1.10
2022-09-05T09:00:24.502Z,1.00
2022-09-05T09:03:29.539Z,1.00
2022-09-05T09:06:34.344Z,0.80
2022-09-05T09:09:37.885Z,1.20
2022-09-05T09:13:00.370Z,1.20
2022-09-05T09:15:59.331Z,1.00
2022-09-05T09:19:08.358Z,0.70
2022-09-05T09:22:12.021Z,1.00
2022-09-05T09:25:15.872Z,1.00
2022-09-05T09:28:48.275Z,0.70
2022-09-05T09:32:03.087Z,0.70
2022-09-05T09:35:05.662Z,0.80
2022-09-05T09:38:23.462Z,0.90
2022-09-05T09:41:46.209Z,1.60
2022-09-05T09:45:23.022Z,0.70
2022-09-05T09:48:51.672Z,0.80
2022-09-05T09:51:57.430Z,1.10
2022-09-05T09:55:24.834Z,1.50
2022-09-05T09:58:52.494Z,1.00
2022-09-05T10:01:54.854Z,1.70
2022-09-05T10:10:38.326Z,1.00
2022-09-05T10:10:48.842Z,1.00
2022-09-05T10:13:07.767Z,0.80
2022-09-05T10:16:47.438Z,0.80
2022-09-05T10:20:11.558Z,0.80
2022-09-05T10:23:33.039Z,1.20
2022-09-05T10:26:58.834Z,0.80
2022-09-05T10:30:12.113Z,0.80
2022-09-05T10:35:19.763Z,0.80
2022-09-05T10:36:37.720Z,0.70
2022-09-05T10:39:30.935Z,1.00
2022-09-05T10:42:31.731Z,0.90
2022-09-05T10:45:38.160Z,1.20
2022-09-05T10:48:38.442Z,1.00
2022-09-05T10:51:37.742Z,0.80
2022-09-05T10:54:43.617Z,0.80
2022-09-05T10:57:42.807Z,0.80
2022-09-05T11:02:25.904Z,1.10
2022-09-05T11:04:24.286Z,0.80
2022-09-05T11:07:19.310Z,0.80
2022-09-05T11:10:26.010Z,0.90
2022-09-05T11:13:25.865Z,0.80
2022-09-05T11:16:29.599Z,0.90
2022-09-05T11:19:27.689Z,1.10
2022-09-05T11:22:22.993Z,1.00
2022-09-05T11:25:36.296Z,1.10
2022-09-05T11:28:59.787Z,1.00
2022-09-05T11:35:45.337Z,0.70
2022-09-05T11:39:52.769Z,0.80
2022-09-05T11:40:03.622Z,0.80
2022-09-05T11:42:46.055Z,1.10
2022-09-05T11:45:58.462Z,0.90
2022-09-05T11:49:20.365Z,0.90
2022-09-05T11:52:52.805Z,1.00
2022-09-05T11:56:14.344Z,0.90
2022-09-05T11:59:35.038Z,0.80
2022-09-05T12:02:39.512Z,1.10
2022-09-05T12:05:58.727Z,0.70
2022-09-05T12:08:56.444Z,0.90
2022-09-05T12:12:02.661Z,0.80
2022-09-05T12:15:11.845Z,0.90
2022-09-05T12:18:24.153Z,0.80
2022-09-05T12:21:33.122Z,1.00
2022-09-05T12:25:25.834Z,0.90
2022-09-05T12:29:21.702Z,0.80
2022-09-05T12:32:48.883Z,0.80
2022-09-05T12:36:13.387Z,0.90
2022-09-05T12:40:56.295Z,0.90
2022-09-05T12:42:08.473Z,0.80
2022-09-05T12:45:10.327Z,0.90
2022-09-05T12:48:11.700Z,0.70
2022-09-05T12:51:07.029Z,0.70
2022-09-05T12:54:00.824Z,0.90
2022-09-05T13:00:58.521Z,0.90
2022-09-05T13:02:58.987Z,0.80
2022-09-05T13:03:32.139Z,1.00
2022-09-05T13:06:31.961Z,0.80
2022-09-05T13:09:58.271Z,0.90
2022-09-05T13:14:54.909Z,0.70
2022-09-05T13:15:58.449Z,0.70
2022-09-05T13:18:50.902Z,0.80
2022-09-05T13:21:53.385Z,0.70
2022-09-05T13:24:49.801Z,0.90
2022-09-05T13:27:47.238Z,1.10
2022-09-05T13:32:16.255Z,1.00
2022-09-05T13:38:04.153Z,0.90
2022-09-05T13:38:06.157Z,1.20
2022-09-05T13:40:39.350Z,0.70
2022-09-05T13:43:37.160Z,1.60
2022-09-05T13:46:39.751Z,1.40
2022-09-05T13:49:37.480Z,0.90
2022-09-05T13:52:36.064Z,0.80
2022-09-05T13:55:38.529Z,0.80
2022-09-05T13:58:40.396Z,0.70
2022-09-05T14:02:26.466Z,0.60
2022-09-05T14:05:36.058Z,0.70
2022-09-05T14:08:44.744Z,0.70
2022-09-05T14:11:55.692Z,0.70
2022-09-05T14:15:09.334Z,0.80
2022-09-05T14:18:20.304Z,0.70
2022-09-05T14:21:18.276Z,1.00
2022-09-05T14:24:16.944Z,0.90
2022-09-05T14:27:27.911Z,0.90
2022-09-05T14:32:14.424Z,0.90
2022-09-05T14:37:41.132Z,1.20
2022-09-05T14:37:51.716Z,0.80
2022-09-05T14:40:29.240Z,1.10
2022-09-05T14:43:51.643Z,1.30
2022-09-05T14:46:41.339Z,1.10
2022-09-05T14:49:36.427Z,0.80
2022-09-05T14:52:23.600Z,0.80
2022-09-05T15:01:46.274Z,0.70
2022-09-05T15:02:51.877Z,1.30
2022-09-05T15:07:04.606Z,0.90
2022-09-05T15:12:20.000Z,1.20
2022-09-05T15:12:44.082Z,1.00
2022-09-05T15:15:29.098Z,1.20
2022-09-05T15:18:05.657Z,1.20
2022-09-05T15:20:41.156Z,0.90
2022-09-05T15:23:32.191Z,1.00
2022-09-05T15:26:09.061Z,1.10
2022-09-05T15:28:46.935Z,0.90
2022-09-05T15:31:28.394Z,1.10
2022-09-05T15:34:26.763Z,0.90
2022-09-05T15:40:04.203Z,0.90
2022-09-05T15:45:20.484Z,1.10
2022-09-05T15:48:14.798Z,0.70
2022-09-05T15:50:51.867Z,1.10
2022-09-05T15:53:33.064Z,1.00
2022-09-05T15:56:20.943Z,1.50
2022-09-05T15:59:01.992Z,0.90
2022-09-05T16:01:58.067Z,1.30
2022-09-05T16:08:35.444Z,1.00
2022-09-05T16:10:35.028Z,0.90
2022-09-05T16:10:59.013Z,1.80
2022-09-05T16:13:52.394Z,1.00
2022-09-05T16:20:18.688Z,1.10
2022-09-05T16:23:27.595Z,1.00
2022-09-05T16:23:31.430Z,1.30
2022-09-05T16:25:14.719Z,0.90
2022-09-05T16:27:58.827Z,0.90
2022-09-05T16:30:34.935Z,1.20
2022-09-05T16:33:13.106Z,1.00
2022-09-05T16:35:54.623Z,1.30
2022-09-05T16:38:49.331Z,1.60
2022-09-05T16:41:33.038Z,1.50
2022-09-05T16:44:12.173Z,1.10
2022-09-05T16:47:04.924Z,1.20
2022-09-05T16:49:48.271Z,1.00
2022-09-05T16:52:28.951Z,1.40
2022-09-05T16:55:08.189Z,1.10
2022-09-05T16:57:58.205Z,1.30
2022-09-05T17:00:49.622Z,1.10
2022-09-05T17:03:31.969Z,1.20
2022-09-05T17:06:25.912Z,1.10
2022-09-05T17:09:12.792Z,1.60
2022-09-05T17:11:59.969Z,1.40
2022-09-05T17:14:38.241Z,1.20
2022-09-05T17:18:04.784Z,1.20
2022-09-05T17:20:17.535Z,1.40
2022-09-05T17:28:41.755Z,1.60
2022-09-05T17:29:23.976Z,1.60
2022-09-05T17:29:24.827Z,1.90
2022-09-05T17:32:01.128Z,1.70
2022-09-05T17:35:16.518Z,1.80
2022-09-05T17:38:19.719Z,2.20
2022-09-05T17:41:27.415Z,1.90
2022-09-05T17:44:07.762Z,2.60
2022-09-05T17:46:49.799Z,6.60
2022-09-05T17:49:43.316Z,2.90
2022-09-05T17:52:26.129Z,2.60
2022-09-05T17:54:59.802Z,2.50
2022-09-05T17:57:41.605Z,2.40
2022-09-05T18:01:07.082Z,3.10
2022-09-05T18:04:17.520Z,2.70
2022-09-05T18:07:00.502Z,2.60
2022-09-05T18:10:00.500Z,2.90
2022-09-05T18:13:13.766Z,3.40
2022-09-05T18:16:13.321Z,2.40
2022-09-05T18:19:28.842Z,2.90
2022-09-05T18:21:51.797Z,3.50
2022-09-05T18:24:37.080Z,3.70
2022-09-05T18:27:39.404Z,3.30
2022-09-05T18:33:53.488Z,3.70
2022-09-05T18:36:41.532Z,2.90
2022-09-05T18:39:47.692Z,3.30
2022-09-05T18:42:25.946Z,3.50
2022-09-05T18:45:16.546Z,3.30
2022-09-05T18:47:58.948Z,3.50
2022-09-05T18:50:40.442Z,3.80
2022-09-05T18:53:25.317Z,4.20
2022-09-05T18:56:20.122Z,3.70
2022-09-05T18:59:09.985Z,3.00
2022-09-05T19:01:52.820Z,3.60
2022-09-05T19:04:40.289Z,3.40
2022-09-05T19:07:22.410Z,3.50
2022-09-05T19:10:34.702Z,3.10
2022-09-05T19:13:05.650Z,3.60
2022-09-05T19:15:50.616Z,3.30
2022-09-05T19:18:36.914Z,3.10
2022-09-05T19:21:16.745Z,3.10
2022-09-05T19:23:57.554Z,3.20
2022-09-05T19:26:34.507Z,3.60
2022-09-05T19:36:49.360Z,3.00
2022-09-05T19:36:54.920Z,3.20
2022-09-05T19:37:03.125Z,3.50
2022-09-05T19:38:02.732Z,3.20
2022-09-05T19:45:36.746Z,3.30
2022-09-05T19:47:38.911Z,3.20
2022-09-05T19:47:55.588Z,3.00
2022-09-05T19:49:24.284Z,3.70
2022-09-05T19:51:59.665Z,3.90
2022-09-05T19:54:37.063Z,3.40
2022-09-05T19:57:16.902Z,3.20
2022-09-05T19:59:56.833Z,3.20
2022-09-05T20:02:33.466Z,3.10
2022-09-05T20:05:11.526Z,2.60
2022-09-05T20:07:54.391Z,2.30
2022-09-05T20:10:31.500Z,2.30
2022-09-05T20:13:23.613Z,2.30
2022-09-05T20:15:57.304Z,2.30
2022-09-05T20:18:37.013Z,5.70
2022-09-05T20:21:14.541Z,5.20
2022-09-05T20:23:51.835Z,4.80
2022-09-05T20:26:29.790Z,4.00
2022-09-05T20:29:07.745Z,3.80
2022-09-05T20:31:42.434Z,3.70
2022-09-05T20:35:29.586Z,2.40
2022-09-05T20:43:10.589Z,1.90
2022-09-05T20:43:29.306Z,2.20
2022-09-05T20:43:37.345Z,1.90
2022-09-05T20:48:01.946Z,2.30
2022-09-05T20:54:05.271Z,2.20
2022-09-05T20:54:23.204Z,1.60
2022-09-05T20:55:38.651Z,2.20
2022-09-05T20:58:16.508Z,1.90
2022-09-05T21:01:19.600Z,2.00
2022-09-05T21:03:59.402Z,1.80
2022-09-05T21:06:35.098Z,1.60
2022-09-05T21:09:24.664Z,1.80
2022-09-05T21:12:06.466Z,2.20
2022-09-05T21:14:43.257Z,1.70
2022-09-05T21:17:24.314Z,1.70
2022-09-05T21:20:07.348Z,1.80
2022-09-05T21:22:45.608Z,1.60
2022-09-05T21:25:42.205Z,1.70
2022-09-05T21:28:36.526Z,2.00
2022-09-05T21:31:16.208Z,1.90
2022-09-05T21:33:52.985Z,1.80
2022-09-05T21:36:32.431Z,1.90
2022-09-05T21:39:06.141Z,1.70
2022-09-05T21:41:40.261Z,2.00
2022-09-05T21:47:35.580Z,1.70
2022-09-05T21:47:47.728Z,1.80
2022-09-05T21:50:19.253Z,1.80
2022-09-05T21:53:46.964Z,1.90
2022-09-05T21:59:29.035Z,2.20
2022-09-05T21:59:30.624Z,1.90
2022-09-05T22:01:53.344Z,1.50
2022-09-05T22:04:27.008Z,1.50
2022-09-05T22:07:02.967Z,2.00
2022-09-05T22:09:36.649Z,1.70
2022-09-05T22:12:26.945Z,1.80
2022-09-05T22:15:26.410Z,1.60
2022-09-05T22:18:16.766Z,1.70
2022-09-05T22:21:32.239Z,1.70
2022-09-05T22:23:51.889Z,1.70
2022-09-05T22:26:25.472Z,1.80
2022-09-05T22:29:00.640Z,1.60
2022-09-05T22:31:34.609Z,2.20
2022-09-05T22:34:08.177Z,1.50
2022-09-05T22:36:43.776Z,1.50
2022-09-05T22:39:36.264Z,1.70
2022-09-05T22:42:11.851Z,1.80
2022-09-05T22:44:45.884Z,1.90
2022-09-05T22:47:20.278Z,2.00
2022-09-05T22:49:53.585Z,1.90
2022-09-05T22:52:27.358Z,1.70
2022-09-05T22:55:00.980Z,1.90
2022-09-05T22:57:34.200Z,1.80
2022-09-05T23:00:09.724Z,1.80
2022-09-05T23:02:43.973Z,2.30
2022-09-05T23:05:17.493Z,2.40
2022-09-05T23:07:50.885Z,1.90
2022-09-05T23:10:24.741Z,1.90
2022-09-05T23:12:58.576Z,2.20
2022-09-05T23:15:32.456Z,2.00
2022-09-05T23:18:06.709Z,1.90
2022-09-05T23:20:39.997Z,1.90
2022-09-05T23:23:13.843Z,1.70
2022-09-05T23:25:47.224Z,2.20
2022-09-05T23:28:20.666Z,1.90
2022-09-05T23:30:54.202Z,2.40
2022-09-05T23:33:27.978Z,2.10
2022-09-05T23:36:04.884Z,1.70
2022-09-05T23:38:38.680Z,2.10
2022-09-05T23:41:14.238Z,2.10
2022-09-05T23:43:47.912Z,1.80
2022-09-05T23:46:38.824Z,2.00
2022-09-05T23:49:12.206Z,1.60
2022-09-05T23:51:45.596Z,2.10
2022-09-05T23:54:18.969Z,2.60
2022-09-05T23:56:52.664Z,2.10
2022-09-05T23:59:26.154Z,2.00
